Latest Weather Observations for Oodnadatta

IDS60801

Issued at 1:35 pm CST Thursday 21 August 2014 (issued every 30 minutes, with the page automatically refreshed every 10 minutes)

About weather observations | Map of weather stations | Latest weather observations for SA | Other Formats
Station Details ID: 017043 Name: OODNADATTA AIRPORT Lat: -27.56 Lon: 135.45 Height: 116.5 m
Data from the previous 72 hours. | See also: Recent months at Oodnadatta
Date/Time
CST
Temp
°C
App
Temp
°C
Dew
Point
Rel
Hum
%
Delta-T
°C
Wind Press
QNH
hPa
Press
MSL
hPa
Rain
since 9 am
mm
Dir
 
Spd
km/h
Gust
km/h
Spd
kts
Gust
kts
21/01:30pm 19.5 14.7 -2.2 23 9.1 NE 13 26 7 14 1021.2 - 0.0
21/01:00pm 19.3 15.4 -1.7 24 8.9 ENE 9 20 5 11 1021.8 - 0.0
21/12:30pm 18.9 15.6 -1.5 25 8.7 NNE 6 19 3 10 1022.3 - 0.0
21/12:00pm 18.9 15.1 -0.5 27 8.4 NE 9 15 5 8 1022.6 1022.5 0.0
21/11:30am 18.0 13.7 -1.3 27 8.2 ENE 11 22 6 12 1023.0 - 0.0
21/11:00am 17.9 14.1 -0.4 29 7.9 NNE 9 28 5 15 1023.4 - 0.0
21/10:30am 17.3 12.0 -0.4 30 7.6 E 17 24 9 13 1023.7 - 0.0
21/10:00am 16.9 11.6 -0.3 31 7.4 E 17 22 9 12 1023.7 - 0.0
21/09:30am 15.7 10.5 -0.1 34 6.7 E 17 20 9 11 1023.8 - 0.0
21/09:00am 13.4 9.7 0.1 40 5.5 E 9 17 5 9 1023.8 1023.7 0.0
21/08:30am 8.8 6.5 -2.2 46 4.2 CALM 0 0 0 0 1023.6 - 0.0
21/08:00am 6.2 3.4 -3.4 50 3.4 SSE 2 6 1 3 1023.4 - 0.0
21/07:30am 4.7 0.5 -4.0 53 3.0 SSE 9 13 5 7 1023.2 - 0.0
21/07:00am 3.4 -0.8 -4.3 57 2.6 ESE 9 15 5 8 1022.9 - 0.0
21/06:30am 3.9 0.1 -3.8 57 2.6 ESE 7 9 4 5 1022.5 - 0.0
21/06:00am 4.2 0.4 -3.5 57 2.7 ESE 7 7 4 4 1022.3 1022.2 0.0
21/05:30am 4.4 0.6 -3.4 57 2.7 ESE 7 7 4 4 1022.2 - 0.0
21/05:00am 5.0 2.6 -3.0 56 2.8 CALM 0 0 0 0 1022.1 - 0.0
21/04:30am 5.2 2.8 -2.8 56 2.9 CALM 0 0 0 0 1022.0 - 0.0
21/04:00am 4.9 2.0 -3.9 53 3.0 ESE 2 9 1 5 1022.0 - 0.0
21/03:30am 5.4 0.9 -3.6 52 3.2 ESE 11 11 6 6 1022.1 - 0.0
21/03:00am 6.3 2.2 -3.1 51 3.4 E 9 11 5 6 1022.4 1022.3 0.0
21/02:30am 7.4 3.8 -2.3 50 3.6 E 7 9 4 5 1022.6 - 0.0
21/02:00am 7.5 3.1 -2.8 48 3.8 E 11 11 6 6 1023.0 - 0.0
21/01:30am 8.0 3.6 -2.6 47 3.9 E 11 13 6 7 1023.2 - 0.0
21/01:00am 8.5 3.3 -2.4 46 4.1 E 15 17 8 9 1023.3 - 0.0
21/12:30am 8.9 4.1 -2.4 45 4.3 E 13 15 7 8 1023.3 - 0.0
21/12:00am 9.6 4.1 -2.0 44 4.4 E 17 19 9 10 1023.3 1023.2 0.0
 
Date/Time
CST
Temp
°C
App
Temp
°C
Dew
Point
Rel
Hum
%
Delta-T
°C
Wind Press
QNH
hPa
Press
MSL
hPa
Rain
since 9 am
mm
Dir
 
Spd
km/h
Gust
km/h
Spd
kts
Gust
kts
20/11:30pm 10.3 5.2 -2.0 42 4.8 E 15 17 8 9 1023.4 - 0.0
20/11:00pm 10.4 4.9 -2.3 41 4.9 E 17 17 9 9 1023.3 - 0.0
20/10:30pm 10.8 5.6 -2.6 39 5.1 E 15 17 8 9 1023.5 - 0.0
20/10:00pm 11.0 5.7 -3.5 36 5.5 ESE 15 17 8 9 1023.4 - 0.0
20/09:30pm 11.4 6.4 -3.9 34 5.7 SE 13 15 7 8 1023.2 - 0.0
20/09:00pm 12.6 7.3 -3.2 33 6.1 SE 15 17 8 9 1022.9 1022.8 0.0
20/08:30pm 13.1 8.3 -2.8 33 6.2 SSE 13 15 7 8 1022.8 - 0.0
20/08:00pm 14.1 9.0 -2.3 32 6.6 SSE 15 17 8 9 1022.4 - 0.0
20/07:30pm 15.4 9.9 -2.1 30 7.1 SSE 17 19 9 10 1022.1 - 0.0
20/07:00pm 16.1 11.0 -1.9 29 7.4 SSE 15 17 8 9 1021.7 - 0.0
20/06:30pm 16.9 12.6 -1.7 28 7.8 SSE 11 15 6 8 1021.5 - 0.0
20/06:00pm 17.9 13.6 -1.9 26 8.3 SE 11 17 6 9 1021.2 1021.1 0.0
20/05:30pm 18.4 14.4 -2.0 25 8.6 E 9 13 5 7 1020.8 - 0.0
20/05:00pm 18.5 14.5 -1.9 25 8.6 SSE 9 13 5 7 1020.6 - 0.0
20/04:30pm 18.8 14.1 -1.6 25 8.7 ESE 13 20 7 11 1020.3 - 0.0
20/04:00pm 19.0 15.2 -0.9 26 8.6 S 9 17 5 9 1020.3 - 0.0
20/03:30pm 19.0 15.2 -0.4 27 8.5 W 9 13 5 7 1020.2 - 0.0
20/03:00pm 18.3 13.8 -0.5 28 8.1 SSE 13 20 7 11 1020.4 1020.3 0.0
20/02:30pm 19.0 16.2 -0.4 27 8.5 SSE 4 11 2 6 1020.7 - 0.0
20/02:00pm 18.0 14.6 -0.3 29 7.9 SE 7 15 4 8 1021.0 - 0.0
20/01:30pm 17.4 14.0 -0.8 29 7.8 S 7 17 4 9 1021.6 - 0.0
20/01:00pm 17.4 13.7 0.1 31 7.5 SSE 9 24 5 13 1022.1 - 0.0
20/12:30pm 17.5 13.8 0.2 31 7.6 SE 9 15 5 8 1022.8 - 0.0
20/12:00pm 17.1 13.1 0.3 32 7.3 ESE 11 15 6 8 1023.4 1023.3 0.0
20/11:30am 17.1 13.6 1.1 34 7.1 SSE 9 15 5 8 1023.9 - 0.0
20/11:00am 16.3 13.0 0.4 34 6.9 ESE 7 13 4 7 1024.2 - 0.0
20/10:30am 16.2 11.9 1.1 36 6.6 ENE 13 20 7 11 1024.4 - 0.0
20/10:00am 15.9 11.2 0.9 36 6.6 E 15 20 8 11 1024.5 - 0.0
20/09:30am 14.3 10.0 0.9 40 5.8 E 13 17 7 9 1024.5 - 0.0
20/09:00am 12.5 8.2 0.9 45 4.9 ESE 13 17 7 9 1024.4 1024.3 0.0
20/08:30am 10.3 7.1 0.9 52 3.9 ESE 7 11 4 6 1024.3 - 0.0
20/08:00am 7.2 4.4 -0.7 57 3.0 SSE 4 7 2 4 1024.2 - 0.0
20/07:30am 3.9 -0.2 -2.9 61 2.4 SSE 9 11 5 6 1024.1 - 0.0
20/07:00am 3.5 -0.2 -2.9 63 2.2 ESE 7 15 4 8 1023.8 - 0.0
20/06:30am 4.0 0.5 -2.6 62 2.3 E 6 9 3 5 1023.3 - 0.0
20/06:00am 4.7 1.2 -1.7 63 2.3 E 7 9 4 5 1023.2 1023.1 0.0
20/05:30am 5.3 1.9 -1.8 60 2.6 E 6 7 3 4 1023.0 - 0.0
20/05:00am 5.4 1.9 -1.3 62 2.5 E 7 9 4 5 1022.9 - 0.0
20/04:30am 5.3 2.7 -1.4 62 2.5 E 2 7 1 4 1022.8 - 0.0
20/04:00am 5.4 3.3 -0.8 64 2.3 CALM 0 6 0 3 1022.7 - 0.0
20/03:30am 5.4 3.2 -1.7 60 2.6 CALM 0 6 0 3 1022.7 - 0.0
20/03:00am 6.0 2.6 -1.9 57 2.9 E 6 7 3 4 1022.7 1022.6 0.0
20/02:30am 6.5 3.2 -1.4 57 3.0 E 6 7 3 4 1023.1 - 0.0
20/02:00am 6.4 2.8 -2.0 55 3.1 E 7 9 4 5 1023.2 - 0.0
20/01:30am 7.4 3.6 -1.0 55 3.2 E 9 11 5 6 1023.4 - 0.0
20/01:00am 7.3 3.1 -0.6 57 3.1 ESE 11 13 6 7 1023.5 - 0.0
20/12:30am 7.3 2.7 -1.1 55 3.2 ESE 13 13 7 7 1023.5 - 0.0
20/12:00am 8.2 4.1 -0.5 54 3.4 ESE 11 13 6 7 1023.6 1023.5 0.0
 
Date/Time
CST
Temp
°C
App
Temp
°C
Dew
Point
Rel
Hum
%
Delta-T
°C
Wind Press
QNH
hPa
Press
MSL
hPa
Rain
since 9 am
mm
Dir
 
Spd
km/h
Gust
km/h
Spd
kts
Gust
kts
19/11:30pm 8.8 4.3 -0.2 53 3.6 E 13 17 7 9 1023.5 - 0.0
19/11:00pm 9.6 5.1 0.0 51 3.9 E 13 19 7 10 1023.5 - 0.0
19/10:30pm 10.4 6.0 0.2 49 4.2 E 13 15 7 8 1023.4 - 0.0
19/10:00pm 11.4 6.3 0.5 47 4.5 ESE 17 19 9 10 1023.4 - 0.0
19/09:30pm 12.0 6.9 0.5 45 4.8 E 17 19 9 10 1023.3 - 0.0
19/09:00pm 12.5 7.4 0.6 44 5.0 ESE 17 17 9 9 1023.2 1023.1 0.0
19/08:30pm 13.5 8.4 0.5 41 5.5 ESE 17 20 9 11 1023.0 - 0.0
19/08:00pm 14.0 8.8 0.3 39 5.8 ESE 17 20 9 11 1022.6 - 0.0
19/07:30pm 14.2 9.3 -0.6 36 6.2 ESE 15 17 8 9 1022.4 - 0.0
19/07:00pm 14.9 10.3 -1.2 33 6.7 ESE 13 15 7 8 1022.1 - 0.0
19/06:30pm 16.3 11.7 -0.8 31 7.2 SE 13 17 7 9 1021.9 - 0.0
19/06:00pm 17.5 13.1 0.2 31 7.5 SE 13 17 7 9 1021.7 1021.6 0.0
19/05:30pm 18.3 14.0 0.9 31 7.8 SSE 13 20 7 11 1021.6 - 0.0
19/05:00pm 18.4 15.2 1.0 31 7.8 SE 7 15 4 8 1021.6 - 0.0
19/04:30pm 18.7 14.0 1.2 31 7.9 SE 15 24 8 13 1021.5 - 0.0
19/04:00pm 18.8 14.9 1.3 31 7.9 S 11 20 6 11 1021.5 - 0.0
19/03:30pm 18.8 15.0 1.8 32 7.8 S 11 19 6 10 1021.6 - 0.0
19/03:00pm 18.8 15.8 1.8 32 7.7 E 7 13 4 7 1021.9 1021.8 0.0
19/02:30pm 18.1 14.3 1.6 33 7.5 SSE 11 20 6 11 1022.2 - 0.0
19/02:00pm 17.6 13.8 1.6 34 7.2 ESE 11 22 6 12 1022.5 - 0.0
19/01:30pm 17.4 13.9 1.4 34 7.2 NE 9 15 5 8 1022.8 - 0.0
19/01:00pm 17.3 13.5 1.7 35 7.0 E 11 19 6 10 1023.3 - 0.0
19/12:30pm 17.5 13.4 2.3 36 6.9 NE 13 20 7 11 1023.9 - 0.0
19/12:00pm 17.0 12.8 1.8 36 6.8 ENE 13 22 7 12 1024.5 1024.4 0.0
19/11:30am 17.3 13.2 2.5 37 6.8 E 13 26 7 14 1025.0 - 0.0
19/11:00am 15.9 11.8 2.3 40 6.1 ESE 13 22 7 12 1025.5 - 0.0
19/10:30am 16.1 12.2 3.2 42 5.9 E 13 20 7 11 1025.9 - 0.0
19/10:00am 14.6 11.5 3.4 47 5.1 ESE 9 17 5 9 1026.1 - 0.0
19/09:30am 12.7 9.8 2.8 51 4.4 SSE 7 9 4 5 1026.1 - 0.0
19/09:00am 10.9 7.9 1.7 53 3.9 SSE 7 11 4 6 1026.0 1026.0 0.0
19/08:30am 9.5 6.6 1.2 56 3.4 SSW 6 9 3 5 1025.8 - 0.0
19/08:00am 6.7 3.9 -0.1 62 2.6 W 4 7 2 4 1025.3 - 0.0
19/07:30am 5.0 2.9 -0.8 66 2.2 CALM 0 0 0 0 1025.2 - 0.0
19/07:00am 3.8 0.3 -1.4 69 1.9 S 7 9 4 5 1024.8 - 0.0
19/06:30am 4.2 2.1 -0.8 70 1.9 CALM 0 0 0 0 1024.4 - 0.0
19/06:00am 4.6 1.4 -0.6 69 1.9 S 6 9 3 5 1023.9 1023.8 0.0
19/05:30am 5.2 2.1 0.0 69 2.0 S 6 7 3 4 1023.8 - 0.0
19/05:00am 5.0 1.6 -0.6 67 2.1 S 7 9 4 5 1023.7 - 0.0
19/04:30am 5.2 1.8 -0.4 67 2.1 S 7 9 4 5 1023.6 - 0.0
19/04:00am 5.0 2.4 -1.7 62 2.5 SSW 2 9 1 5 1023.6 - 0.0
19/03:30am 5.7 3.7 -0.4 65 2.3 CALM 0 6 0 3 1023.6 - 0.0
19/03:00am 6.1 2.3 -0.4 63 2.5 E 9 11 5 6 1023.7 1023.6 0.0
19/02:30am 6.7 3.0 0.2 63 2.5 ESE 9 9 5 5 1024.0 - 0.0
19/02:00am 6.4 2.5 -1.7 56 3.0 SE 9 11 5 6 1024.1 - 0.0
19/01:30am 7.4 4.0 -0.8 56 3.2 SE 7 9 4 5 1024.3 - 0.0
19/01:00am 7.6 3.9 0.1 59 3.0 E 9 9 5 5 1024.4 - 0.0
19/12:30am 7.6 3.9 -0.1 58 3.0 E 9 11 5 6 1024.4 - 0.0
19/12:00am 8.1 4.0 -0.1 56 3.2 E 11 13 6 7 1024.5 1024.4 0.0
 
Date/Time
CST
Temp
°C
App
Temp
°C
Dew
Point
Rel
Hum
%
Delta-T
°C
Wind Press
QNH
hPa
Press
MSL
hPa
Rain
since 9 am
mm
Dir
 
Spd
km/h
Gust
km/h
Spd
kts
Gust
kts
18/11:30pm 8.7 3.9 0.2 55 3.4 E 15 17 8 9 1024.6 - 0.0
18/11:00pm 9.2 5.1 0.1 53 3.7 E 11 13 6 7 1024.7 - 0.0
18/10:30pm 10.1 6.5 0.7 52 3.9 ESE 9 11 5 6 1024.7 - 0.0
18/10:00pm 10.9 7.0 1.4 52 4.0 ESE 11 11 6 6 1024.6 - 0.0
18/09:30pm 11.2 6.9 1.2 50 4.2 ESE 13 17 7 9 1024.7 - 0.0
18/09:00pm 12.4 8.2 1.4 47 4.7 SSE 13 15 7 8 1024.3 1024.2 0.0
18/08:30pm 13.4 8.8 1.4 44 5.2 SSE 15 17 8 9 1024.1 - 0.0
18/08:00pm 14.1 9.4 1.1 41 5.6 SSE 15 17 8 9 1023.9 - 0.0
18/07:30pm 14.6 9.8 0.5 38 6.0 SSE 15 17 8 9 1023.6 - 0.0
18/07:00pm 15.5 10.7 0.5 36 6.5 SSE 15 17 8 9 1023.4 - 0.0
18/06:30pm 16.5 11.4 0.6 34 6.9 S 17 20 9 11 1023.1 - 0.0
18/06:00pm 17.2 12.0 0.4 32 7.3 S 17 22 9 12 1022.7 1022.6 0.0
18/05:30pm 17.8 13.1 0.9 32 7.5 S 15 22 8 12 1022.5 - 0.0
18/05:00pm 18.1 13.0 0.7 31 7.7 SSE 17 26 9 14 1022.4 - 0.0
18/04:30pm 18.4 13.0 1.0 31 7.8 S 19 30 10 16 1022.3 - 0.0
18/04:00pm 18.1 12.4 0.7 31 7.7 S 20 28 11 15 1022.2 - 0.0
18/03:30pm 18.9 13.3 1.4 31 7.9 S 20 32 11 17 1022.2 - 0.0
18/03:00pm 18.7 12.7 0.8 30 8.0 SSW 22 28 12 15 1022.2 1022.1 0.0
18/02:30pm 18.0 11.9 0.6 31 7.7 SSW 22 30 12 16 1022.4 - 0.0
18/02:00pm 17.7 12.2 0.8 32 7.5 S 19 28 10 15 1022.4 - 0.0

Other Formats:

Comma delimited format used in spreadsheet applications
http://www.bom.gov.au/fwo/IDS60801/IDS60801.94476.axf

JavaScript Object Notation format (JSON) in row-major order
http://www.bom.gov.au/fwo/IDS60801/IDS60801.94476.json